Time;durP1;ratioP1;P1;durP2;ratioP2;P2;SDS_P1;SDS_P2;PMS_P1;PMS_P2;Temp;Humidity;BMP_temperature;BMP_pressure;BME280_temperature;BME280_humidity;BME280_pressure;Samples;Min_cycle;Max_cycle;Signal;HPM_P1;HPM_P2
2021/05/15 00:01:18;;;;;;;1.10;1.00;;;11.40;99.90;;;;;;5094250;28;20253;-38
2021/05/15 00:03:44;;;;;;;1.33;1.00;;;11.30;99.90;;;;;;5094137;28;20282;-38
2021/05/15 00:06:11;;;;;;;1.08;0.85;;;11.30;99.90;;;;;;5093867;28;20687;-38
2021/05/15 00:08:37;;;;;;;0.95;0.90;;;11.30;99.90;;;;;;5094016;28;20661;-38
2021/05/15 00:11:06;;;;;;;1.38;1.00;;;11.20;99.90;;;;;;5093954;28;20289;-38
2021/05/15 00:13:32;;;;;;;2.63;1.17;;;11.20;99.90;;;;;;5093903;28;20223;-39
2021/05/15 00:15:59;;;;;;;2.95;1.23;;;11.20;99.90;;;;;;5093753;28;20294;-37
2021/05/15 00:18:26;;;;;;;1.10;1.10;;;11.20;99.90;;;;;;5093794;28;20302;-38
2021/05/15 00:20:52;;;;;;;2.40;1.23;;;11.20;99.90;;;;;;5093534;28;20304;-38
2021/05/15 00:23:19;;;;;;;2.47;1.40;;;11.20;99.90;;;;;;5093845;28;20191;-38
2021/05/15 00:25:45;;;;;;;1.38;1.20;;;11.20;99.90;;;;;;5093515;28;20248;-38
2021/05/15 00:28:11;;;;;;;1.85;1.25;;;11.20;99.90;;;;;;5093652;28;20612;-38
2021/05/15 00:30:38;;;;;;;3.20;1.50;;;11.20;99.90;;;;;;5093608;28;20298;-38
2021/05/15 00:33:05;;;;;;;2.35;1.27;;;11.20;99.90;;;;;;5093217;28;20198;-38
2021/05/15 00:35:32;;;;;;;2.88;1.50;;;11.20;99.90;;;;;;5093234;28;20203;-40
2021/05/15 00:37:58;;;;;;;2.63;1.50;;;11.20;99.90;;;;;;5093640;28;20297;-37
2021/05/15 00:40:24;;;;;;;1.98;1.50;;;11.10;99.90;;;;;;5093459;28;20202;-38
2021/05/15 00:42:51;;;;;;;1.45;1.35;;;11.20;99.90;;;;;;5093152;28;20597;-38
2021/05/15 00:45:17;;;;;;;1.95;1.52;;;11.10;99.90;;;;;;5093217;28;20560;-39
2021/05/15 00:47:43;;;;;;;4.00;1.38;;;11.10;99.90;;;;;;5093143;28;20328;-38
2021/05/15 00:50:11;;;;;;;2.20;1.40;;;11.10;99.90;;;;;;5093055;28;20276;-38
2021/05/15 00:52:38;;;;;;;1.48;1.38;;;11.00;99.90;;;;;;5093221;28;20231;-38
2021/05/15 00:55:11;;;;;;;3.22;1.55;;;11.00;99.90;;;;;;5093004;28;20222;-38
2021/05/15 00:57:38;;;;;;;1.40;1.30;;;11.00;99.90;;;;;;5093104;28;20567;-38
2021/05/15 01:00:07;;;;;;;1.35;1.25;;;11.00;99.90;;;;;;5092912;28;20202;-38
2021/05/15 01:02:33;;;;;;;1.52;1.38;;;11.00;99.90;;;;;;5092744;28;20320;-38
2021/05/15 01:05:00;;;;;;;1.33;1.23;;;11.00;99.90;;;;;;5092835;28;20306;-38
2021/05/15 01:07:27;;;;;;;2.00;1.58;;;11.00;99.90;;;;;;5092603;28;20308;-38
2021/05/15 01:09:53;;;;;;;1.27;1.17;;;11.10;99.90;;;;;;5092723;28;20248;-38
2021/05/15 01:12:20;;;;;;;2.38;1.35;;;11.10;99.90;;;;;;5092756;28;20223;-38
2021/05/15 01:14:46;;;;;;;2.42;1.48;;;11.10;99.90;;;;;;5092725;28;20305;-39
2021/05/15 01:17:13;;;;;;;1.67;1.38;;;11.10;99.90;;;;;;5092406;28;20202;-38
2021/05/15 01:19:39;;;;;;;1.55;1.45;;;11.10;99.90;;;;;;5092760;28;20199;-38
2021/05/15 01:22:09;;;;;;;1.48;1.38;;;11.10;99.90;;;;;;5092645;28;20730;-37
2021/05/15 01:24:36;;;;;;;1.40;1.30;;;11.10;99.90;;;;;;5092361;28;20777;-38
2021/05/15 01:27:06;;;;;;;2.60;1.35;;;11.10;99.90;;;;;;5092455;28;20226;-37
2021/05/15 01:29:32;;;;;;;1.23;1.02;;;11.10;99.90;;;;;;5092445;28;20199;-37
2021/05/15 01:31:58;;;;;;;2.75;1.60;;;11.10;99.90;;;;;;5092147;28;20293;-36
2021/05/15 01:34:25;;;;;;;1.95;1.30;;;11.10;99.90;;;;;;5092494;28;20250;-40
2021/05/15 01:36:51;;;;;;;1.10;1.00;;;11.10;99.90;;;;;;5092408;28;20733;-38
2021/05/15 01:39:19;;;;;;;1.38;1.10;;;11.10;99.90;;;;;;5092148;28;20286;-38
2021/05/15 01:41:46;;;;;;;1.38;1.15;;;11.10;99.90;;;;;;5092248;28;20210;-38
2021/05/15 01:44:13;;;;;;;2.28;1.25;;;11.10;99.90;;;;;;5092061;28;20201;-38
2021/05/15 01:46:39;;;;;;;1.90;1.77;;;11.10;99.90;;;;;;5092098;28;20530;-38
2021/05/15 01:49:06;;;;;;;2.10;1.50;;;11.10;99.90;;;;;;5092399;28;20199;-38
2021/05/15 01:51:33;;;;;;;1.35;1.25;;;11.10;99.90;;;;;;5092088;28;20293;-38
2021/05/15 01:53:59;;;;;;;1.23;1.00;;;11.10;99.90;;;;;;5092029;28;20227;-39
2021/05/15 01:56:28;;;;;;;0.98;0.88;;;11.10;99.90;;;;;;5092174;28;20206;-38
2021/05/15 01:58:55;;;;;;;3.67;2.08;;;11.10;99.90;;;;;;5091987;28;20198;-38
2021/05/15 02:01:23;;;;;;;0.93;0.90;;;11.10;99.90;;;;;;5092249;28;20676;-37
2021/05/15 02:03:50;;;;;;;1.63;1.52;;;11.10;99.90;;;;;;5092173;28;20285;-38
2021/05/15 02:06:16;;;;;;;1.70;1.13;;;11.10;99.90;;;;;;5091912;28;20221;-39
2021/05/15 02:08:45;;;;;;;1.83;0.95;;;11.10;99.90;;;;;;5091913;28;20240;-38
2021/05/15 02:11:12;;;;;;;2.33;1.35;;;11.10;99.90;;;;;;5091935;28;20286;-38
2021/05/15 02:13:39;;;;;;;1.50;1.40;;;11.10;99.90;;;;;;5091752;28;20249;-41
2021/05/15 02:16:06;;;;;;;1.83;0.90;;;11.10;99.90;;;;;;5092027;28;20230;-38
2021/05/15 02:18:33;;;;;;;3.97;2.60;;;11.10;99.90;;;;;;5093084;28;20340;-38
2021/05/15 02:20:59;;;;;;;1.20;1.10;;;11.10;99.90;;;;;;5095685;28;20622;-39
2021/05/15 02:23:26;;;;;;;1.77;1.35;;;11.10;99.90;;;;;;5095792;28;20207;-40
2021/05/15 02:25:53;;;;;;;11.48;8.70;;;11.10;99.90;;;;;;5095833;28;20298;-38
2021/05/15 02:28:20;;;;;;;1.20;1.10;;;11.10;99.90;;;;;;5096062;28;20502;-39
2021/05/15 02:30:47;;;;;;;1.38;0.80;;;11.10;99.90;;;;;;5095889;28;20241;-38
2021/05/15 02:33:14;;;;;;;1.30;1.20;;;11.10;99.90;;;;;;5095534;28;20421;-38
2021/05/15 02:35:41;;;;;;;20.77;18.80;;;11.00;99.90;;;;;;5095792;28;20205;-38
2021/05/15 02:38:10;;;;;;;1.10;1.00;;;11.00;99.90;;;;;;5095605;28;20198;-38
2021/05/15 02:40:37;;;;;;;1.30;1.20;;;11.00;99.90;;;;;;5095395;28;20233;-38
2021/05/15 02:43:03;;;;;;;1.30;1.20;;;11.00;99.90;;;;;;5095350;28;20210;-38
2021/05/15 02:45:30;;;;;;;3.67;1.10;;;11.00;99.90;;;;;;5095457;28;20222;-39
2021/05/15 02:47:58;;;;;;;2.10;1.88;;;11.00;99.90;;;;;;5095565;28;20199;-39
2021/05/15 02:50:25;;;;;;;4.50;1.40;;;11.00;99.90;;;;;;5095481;28;20234;-38
2021/05/15 02:52:51;;;;;;;3.40;2.17;;;11.00;99.90;;;;;;5095365;28;20732;-39
2021/05/15 02:55:21;;;;;;;1.05;0.98;;;11.00;99.90;;;;;;5095317;28;20637;-38
2021/05/15 02:57:48;;;;;;;1.10;1.00;;;11.00;99.90;;;;;;5095167;28;20298;-39
2021/05/15 03:00:18;;;;;;;1.20;1.10;;;11.00;99.90;;;;;;5095446;28;20290;-39
2021/05/15 03:02:45;;;;;;;1.20;1.05;;;11.00;99.90;;;;;;5095272;28;20724;-38
2021/05/15 03:05:14;;;;;;;3.03;2.40;;;11.00;99.90;;;;;;5095111;28;20221;-38
2021/05/15 03:07:41;;;;;;;1.33;1.02;;;11.00;99.90;;;;;;5094979;28;20207;-39
2021/05/15 03:10:09;;;;;;;1.70;1.30;;;11.00;99.90;;;;;;5095237;28;20263;-39
2021/05/15 03:12:36;;;;;;;1.33;1.02;;;11.00;99.90;;;;;;5095274;28;20446;-38
2021/05/15 03:15:04;;;;;;;2.65;1.10;;;11.00;99.90;;;;;;5095096;28;20601;-38
2021/05/15 03:17:30;;;;;;;2.78;1.75;;;11.00;99.90;;;;;;5095017;28;20361;-39
2021/05/15 03:19:56;;;;;;;1.35;1.23;;;11.00;99.90;;;;;;5094880;28;20661;-38
2021/05/15 03:22:24;;;;;;;1.15;1.05;;;11.00;99.90;;;;;;5094897;28;20276;-38
2021/05/15 03:24:50;;;;;;;1.52;1.13;;;11.00;99.90;;;;;;5094588;28;20230;-39
2021/05/15 03:27:16;;;;;;;4.15;1.40;;;11.00;99.90;;;;;;5094904;28;20244;-38
2021/05/15 03:29:43;;;;;;;0.90;0.90;;;11.00;99.90;;;;;;5094785;28;20206;-38
2021/05/15 03:32:10;;;;;;;2.08;1.83;;;11.00;99.90;;;;;;5094617;28;20211;-37
2021/05/15 03:34:36;;;;;;;4.10;3.25;;;11.00;99.90;;;;;;5094590;28;20696;-38
2021/05/15 03:37:03;;;;;;;3.75;3.38;;;11.00;99.90;;;;;;5094637;28;20319;-38
2021/05/15 03:39:30;;;;;;;5.78;4.38;;;11.00;99.90;;;;;;5094704;28;20674;-38
2021/05/15 03:41:56;;;;;;;4.22;3.13;;;11.00;99.90;;;;;;5094747;28;20241;-39
2021/05/15 03:44:22;;;;;;;4.35;3.22;;;11.00;99.90;;;;;;5094527;28;20285;-38
2021/05/15 03:46:49;;;;;;;2.63;2.42;;;11.10;99.90;;;;;;5094375;28;20587;-37
2021/05/15 03:49:16;;;;;;;4.45;3.22;;;11.00;99.90;;;;;;5094362;28;20203;-38
2021/05/15 03:51:42;;;;;;;1.50;1.40;;;11.00;99.90;;;;;;5094518;28;20293;-39
2021/05/15 03:54:09;;;;;;;2.33;1.85;;;11.00;99.90;;;;;;5094372;28;20227;-38
2021/05/15 03:56:36;;;;;;;4.03;3.05;;;11.00;99.90;;;;;;5094479;28;20661;-38
2021/05/15 03:59:03;;;;;;;3.78;2.58;;;11.00;99.90;;;;;;5094428;28;20297;-38
2021/05/15 04:01:29;;;;;;;3.17;1.83;;;11.00;99.90;;;;;;5094030;28;20198;-40
2021/05/15 04:03:56;;;;;;;4.40;2.38;;;11.00;99.90;;;;;;5093719;28;20199;-41
2021/05/15 04:06:22;;;;;;;1.90;1.73;;;11.00;99.90;;;;;;5093931;28;20199;-41
2021/05/15 04:08:48;;;;;;;3.35;3.03;;;11.00;99.90;;;;;;5093894;28;20241;-37
2021/05/15 04:11:15;;;;;;;3.47;2.90;;;11.00;99.90;;;;;;5093972;28;20231;-37
2021/05/15 04:13:47;;;;;;;2.40;1.70;;;11.10;99.90;;;;;;5094100;28;20655;-40
2021/05/15 04:16:17;;;;;;;5.07;2.78;;;11.20;99.90;;;;;;5094072;28;20294;-38
2021/05/15 04:18:43;;;;;;;3.83;1.92;;;11.20;99.90;;;;;;5094148;28;20290;-38
2021/05/15 04:21:09;;;;;;;2.95;1.85;;;11.20;99.90;;;;;;5093743;28;20242;-37
2021/05/15 04:23:36;;;;;;;2.97;1.77;;;11.20;99.90;;;;;;5093753;28;20218;-40
2021/05/15 04:26:03;;;;;;;1.30;1.17;;;11.30;99.90;;;;;;5093939;28;20235;-40
2021/05/15 04:28:31;;;;;;;4.28;3.13;;;11.40;99.90;;;;;;5093356;28;20308;-40
2021/05/15 04:30:58;;;;;;;2.42;2.22;;;11.40;99.90;;;;;;5093610;28;20203;-41
2021/05/15 04:33:25;;;;;;;5.05;4.32;;;11.40;99.90;;;;;;5093705;28;20198;-40
2021/05/15 04:35:52;;;;;;;3.40;3.10;;;11.50;99.90;;;;;;5093681;28;20209;-40
2021/05/15 04:38:19;;;;;;;3.15;2.85;;;11.50;99.90;;;;;;5093515;28;20194;-39
2021/05/15 04:40:45;;;;;;;3.13;2.67;;;11.50;99.90;;;;;;5092978;28;20286;-41
2021/05/15 04:43:13;;;;;;;3.45;2.90;;;11.50;99.90;;;;;;5093404;28;20270;-39
2021/05/15 04:45:40;;;;;;;2.40;2.20;;;11.60;99.90;;;;;;5093309;28;20194;-39
2021/05/15 04:48:08;;;;;;;2.30;1.60;;;11.60;99.90;;;;;;5093412;28;20199;-39
2021/05/15 04:50:35;;;;;;;4.07;2.80;;;11.60;99.90;;;;;;5093517;28;20227;-39
2021/05/15 04:53:01;;;;;;;3.60;2.08;;;11.70;99.90;;;;;;5093160;28;20207;-40
2021/05/15 04:55:27;;;;;;;2.47;1.67;;;11.70;99.90;;;;;;5093011;28;20775;-40
2021/05/15 04:57:54;;;;;;;1.50;1.40;;;11.70;99.90;;;;;;5093140;28;20234;-41
2021/05/15 05:00:21;;;;;;;1.73;0.85;;;11.70;99.90;;;;;;5093284;28;20207;-41
2021/05/15 05:02:47;;;;;;;1.35;1.25;;;11.80;99.90;;;;;;5093262;28;20683;-42
2021/05/15 05:05:14;;;;;;;1.33;1.20;;;11.80;99.90;;;;;;5093026;28;20195;-39
2021/05/15 05:07:42;;;;;;;1.38;1.00;;;11.80;99.90;;;;;;5092921;28;20290;-39
2021/05/15 05:10:09;;;;;;;3.65;1.00;;;11.70;99.90;;;;;;5092833;28;20614;-38
2021/05/15 05:12:35;;;;;;;1.23;0.82;;;11.70;99.90;;;;;;5092738;28;20606;-38
2021/05/15 05:15:02;;;;;;;1.55;0.93;;;11.80;99.90;;;;;;5092929;28;20229;-38
2021/05/15 05:17:28;;;;;;;0.93;0.93;;;11.80;99.90;;;;;;5093004;28;20362;-38
2021/05/15 05:19:54;;;;;;;1.40;1.10;;;11.80;99.90;;;;;;5092791;28;20227;-38
2021/05/15 05:22:22;;;;;;;2.15;1.05;;;11.80;99.90;;;;;;5092778;28;20658;-38
2021/05/15 05:24:48;;;;;;;1.98;0.90;;;11.90;99.90;;;;;;5092509;28;20750;-39
2021/05/15 05:27:18;;;;;;;1.00;0.90;;;11.90;99.90;;;;;;5092614;28;20202;-38
2021/05/15 05:29:44;;;;;;;2.53;1.00;;;12.00;99.90;;;;;;5092591;28;20194;-37
2021/05/15 05:32:10;;;;;;;1.08;0.95;;;12.20;99.90;;;;;;5092293;28;20696;-39
2021/05/15 05:34:37;;;;;;;1.20;0.82;;;12.20;99.90;;;;;;5092234;28;20685;-38
2021/05/15 05:37:04;;;;;;;0.88;0.85;;;12.30;99.90;;;;;;5092279;28;20335;-37
2021/05/15 05:39:32;;;;;;;0.98;0.90;;;12.40;99.90;;;;;;5092162;28;20207;-37
2021/05/15 05:41:59;;;;;;;3.63;0.90;;;12.50;99.90;;;;;;5092276;28;20227;-38
2021/05/15 05:44:25;;;;;;;1.67;1.10;;;12.50;99.90;;;;;;5092183;28;20281;-38
2021/05/15 05:46:51;;;;;;;2.83;0.93;;;12.50;99.90;;;;;;5092050;28;20254;-38
2021/05/15 05:49:18;;;;;;;1.67;0.77;;;12.60;99.90;;;;;;5092123;28;20199;-38
2021/05/15 05:51:44;;;;;;;1.00;0.90;;;12.50;99.90;;;;;;5091958;28;20279;-39
2021/05/15 05:54:10;;;;;;;1.80;1.00;;;12.50;99.90;;;;;;5090897;28;20778;-38
2021/05/15 05:56:37;;;;;;;2.42;0.80;;;12.50;99.90;;;;;;5092101;28;20203;-38
2021/05/15 05:59:04;;;;;;;1.23;1.08;;;12.50;99.90;;;;;;5092344;28;20374;-39
2021/05/15 06:01:30;;;;;;;1.30;0.95;;;12.50;99.90;;;;;;5092928;28;20246;-38
2021/05/15 06:03:57;;;;;;;1.30;0.90;;;12.40;99.90;;;;;;5091951;28;20199;-38
2021/05/15 06:06:23;;;;;;;0.85;0.80;;;12.40;99.90;;;;;;5091522;28;20328;-38
2021/05/15 06:08:50;;;;;;;0.93;0.90;;;12.30;99.90;;;;;;5089820;28;20199;-38
2021/05/15 06:11:16;;;;;;;1.40;0.90;;;12.30;99.90;;;;;;5092376;28;20241;-39
2021/05/15 06:13:43;;;;;;;1.88;0.93;;;12.20;99.90;;;;;;5092058;28;20203;-40
2021/05/15 06:16:09;;;;;;;0.80;0.80;;;12.10;99.90;;;;;;5092346;28;20436;-38
2021/05/15 06:18:36;;;;;;;1.23;1.00;;;12.10;99.90;;;;;;5091831;28;20290;-38
2021/05/15 06:21:02;;;;;;;1.25;1.10;;;12.00;99.90;;;;;;5091861;28;20646;-38
2021/05/15 06:23:28;;;;;;;3.33;0.90;;;12.00;99.90;;;;;;5091650;28;20234;-38
2021/05/15 06:25:54;;;;;;;1.88;0.73;;;12.00;99.90;;;;;;5091982;28;20684;-39
2021/05/15 06:28:21;;;;;;;0.77;0.70;;;12.10;99.90;;;;;;5091909;28;20210;-40
2021/05/15 06:30:49;;;;;;;1.10;0.90;;;12.20;99.90;;;;;;5091889;28;20285;-39
2021/05/15 06:33:15;;;;;;;2.13;1.20;;;12.30;99.90;;;;;;5091792;28;20518;-38
2021/05/15 06:35:41;;;;;;;1.38;1.02;;;12.30;99.90;;;;;;5091719;28;20226;-38
2021/05/15 06:38:09;;;;;;;2.03;0.80;;;12.30;99.90;;;;;;5091759;28;20221;-38
2021/05/15 06:40:35;;;;;;;1.17;0.90;;;12.30;99.90;;;;;;5091980;28;20692;-37
2021/05/15 06:43:02;;;;;;;1.30;0.60;;;12.30;99.90;;;;;;5091932;28;20603;-38
2021/05/15 06:45:28;;;;;;;1.33;1.20;;;12.40;99.90;;;;;;5091930;28;20230;-40
2021/05/15 06:47:57;;;;;;;1.70;1.30;;;12.40;99.90;;;;;;5091529;28;20199;-38
2021/05/15 06:50:24;;;;;;;1.23;1.00;;;12.40;99.90;;;;;;5091624;28;20241;-39
2021/05/15 06:52:53;;;;;;;1.25;1.00;;;12.50;99.90;;;;;;5091952;28;20279;-39
2021/05/15 06:55:19;;;;;;;1.83;0.80;;;12.50;99.90;;;;;;5091584;28;20312;-42
2021/05/15 06:57:45;;;;;;;1.15;0.88;;;12.60;99.90;;;;;;5091725;28;20199;-39
2021/05/15 07:00:13;;;;;;;0.98;0.90;;;12.80;99.90;;;;;;5091603;28;20252;-39
2021/05/15 07:02:40;;;;;;;2.20;0.80;;;13.00;99.90;;;;;;5091662;28;20293;-41
2021/05/15 07:05:08;;;;;;;0.90;0.82;;;13.20;99.90;;;;;;5093439;28;20374;-40
2021/05/15 07:07:35;;;;;;;1.40;1.13;;;13.40;99.90;;;;;;5095405;28;20658;-39
2021/05/15 07:10:01;;;;;;;0.70;0.70;;;13.60;99.60;;;;;;5095851;28;20589;-39
2021/05/15 07:12:27;;;;;;;0.82;0.82;;;13.80;99.20;;;;;;5095503;28;20378;-40
2021/05/15 07:14:54;;;;;;;1.55;1.10;;;14.00;98.90;;;;;;5095147;28;20317;-39
2021/05/15 07:17:25;;;;;;;1.10;1.00;;;14.00;98.50;;;;;;5095210;28;20274;-39
2021/05/15 07:19:52;;;;;;;2.08;1.15;;;14.00;98.60;;;;;;5094913;28;20205;-42
2021/05/15 07:22:22;;;;;;;2.03;1.23;;;14.00;98.50;;;;;;5095210;28;20646;-40
2021/05/15 07:24:49;;;;;;;1.60;1.23;;;14.10;98.20;;;;;;5095209;28;20327;-40
2021/05/15 07:27:16;;;;;;;2.08;0.93;;;14.30;99.00;;;;;;5095031;28;20516;-41
2021/05/15 07:29:42;;;;;;;1.50;0.90;;;14.40;97.80;;;;;;5094833;28;20194;-41
2021/05/15 07:32:09;;;;;;;1.10;1.00;;;14.50;97.60;;;;;;5094711;28;20728;-40
2021/05/15 07:34:36;;;;;;;2.20;1.17;;;14.40;97.70;;;;;;5094958;28;20588;-40
2021/05/15 07:37:03;;;;;;;2.67;1.40;;;14.40;97.70;;;;;;5094723;28;20234;-39
2021/05/15 07:39:30;;;;;;;1.27;1.15;;;14.50;97.60;;;;;;5094813;28;20199;-40
2021/05/15 07:41:56;;;;;;;1.20;0.90;;;14.50;97.50;;;;;;5094717;28;20199;-41
2021/05/15 07:44:23;;;;;;;3.95;1.70;;;14.70;97.20;;;;;;5094784;28;20226;-40
2021/05/15 07:46:50;;;;;;;10.38;2.20;;;14.90;97.00;;;;;;5094534;28;20225;-38
2021/05/15 07:49:18;;;;;;;1.92;1.10;;;14.90;96.60;;;;;;5094579;28;20305;-39
2021/05/15 07:51:44;;;;;;;13.13;2.05;;;14.80;96.60;;;;;;5094350;28;20209;-37
2021/05/15 07:54:10;;;;;;;11.52;1.58;;;14.80;96.60;;;;;;5094326;28;20219;-38
2021/05/15 07:56:37;;;;;;;4.55;0.90;;;14.80;96.40;;;;;;5094081;28;20745;-37
2021/05/15 07:59:04;;;;;;;6.82;1.70;;;15.00;95.90;;;;;;5094308;28;20202;-38
2021/05/15 08:01:30;;;;;;;57.03;8.07;;;15.10;95.10;;;;;;5094061;28;20731;-39
2021/05/15 08:03:57;;;;;;;6.85;1.92;;;15.30;94.50;;;;;;5094202;28;20285;-38
2021/05/15 08:06:23;;;;;;;9.45;1.35;;;15.40;94.20;;;;;;5094322;28;20203;-39
2021/05/15 08:08:49;;;;;;;1.45;0.98;;;15.50;93.40;;;;;;5093986;28;20195;-40
2021/05/15 08:11:17;;;;;;;5.72;1.70;;;15.60;93.50;;;;;;5093866;28;20199;-40
2021/05/15 08:13:45;;;;;;;4.20;1.52;;;15.70;93.40;;;;;;5093430;28;20293;-40
2021/05/15 08:16:12;;;;;;;2.28;1.70;;;15.80;93.30;;;;;;5092684;28;20293;-39
2021/05/15 08:18:39;;;;;;;3.40;3.10;;;16.00;93.10;;;;;;5093939;28;20267;-39
2021/05/15 08:21:06;;;;;;;2.15;1.00;;;16.20;92.80;;;;;;5093377;28;20227;-39
2021/05/15 08:23:35;;;;;;;1.20;1.10;;;16.50;92.50;;;;;;5093456;28;20202;-40
2021/05/15 08:26:02;;;;;;;1.05;0.80;;;16.70;91.90;;;;;;5093480;28;20198;-40
2021/05/15 08:28:28;;;;;;;3.58;1.33;;;16.90;91.50;;;;;;5093515;28;20282;-40
2021/05/15 08:30:56;;;;;;;7.55;1.70;;;17.10;91.20;;;;;;5093303;28;20658;-39
2021/05/15 08:33:22;;;;;;;1.88;1.10;;;17.10;91.00;;;;;;5093534;28;20198;-40
2021/05/15 08:35:48;;;;;;;2.58;1.95;;;17.00;91.00;;;;;;5093752;28;20234;-41
2021/05/15 08:38:15;;;;;;;1.48;1.00;;;16.90;90.80;;;;;;5093592;28;20202;-42
2021/05/15 08:40:41;;;;;;;1.33;1.17;;;16.80;90.60;;;;;;5093448;28;20195;-41
2021/05/15 08:43:08;;;;;;;1.63;1.10;;;16.80;90.70;;;;;;5093374;28;20734;-41
2021/05/15 08:45:35;;;;;;;4.05;1.58;;;16.70;91.00;;;;;;5093257;28;20201;-41
2021/05/15 08:48:04;;;;;;;3.85;1.10;;;16.60;90.30;;;;;;5093513;28;20297;-41
2021/05/15 08:50:32;;;;;;;1.17;0.95;;;16.50;90.40;;;;;;5093468;28;20199;-42
2021/05/15 08:53:00;;;;;;;3.40;0.82;;;16.30;90.90;;;;;;5093191;28;20210;-42
2021/05/15 08:55:28;;;;;;;1.23;0.90;;;16.30;90.90;;;;;;5093058;28;20437;-39
2021/05/15 08:57:55;;;;;;;1.73;1.00;;;16.30;91.00;;;;;;5093168;28;20293;-40
2021/05/15 09:00:24;;;;;;;3.67;1.50;;;16.30;90.50;;;;;;5093238;28;20222;-40
2021/05/15 09:02:54;;;;;;;1.30;1.10;;;16.20;90.20;;;;;;5093032;28;20239;-41
2021/05/15 09:05:23;;;;;;;3.15;0.88;;;16.20;90.20;;;;;;5092903;28;20199;-41
2021/05/15 09:07:53;;;;;;;1.00;0.60;;;16.20;89.30;;;;;;5092816;28;20257;-42
2021/05/15 09:10:23;;;;;;;2.78;1.02;;;16.20;89.10;;;;;;5092801;28;20242;-41
2021/05/15 09:13:07;;;;;;;0.88;0.68;;;16.40;87.60;;;;;;5092765;28;20257;-42
2021/05/15 09:15:39;;;;;;;5.13;1.42;;;16.70;86.70;;;;;;5092795;28;20378;-40
2021/05/15 09:18:07;;;;;;;5.55;1.08;;;17.10;84.90;;;;;;5092819;28;20234;-40
2021/05/15 09:20:37;;;;;;;4.82;0.98;;;17.20;84.20;;;;;;5092383;28;20214;-40
2021/05/15 09:23:17;;;;;;;8.27;1.17;;;17.20;83.90;;;;;;5092581;28;20206;-39
2021/05/15 09:25:56;;;;;;;2.08;0.77;;;17.30;83.50;;;;;;5092470;28;20230;-39
2021/05/15 09:28:38;;;;;;;1.73;0.80;;;17.20;83.50;;;;;;5092470;28;20233;-42
2021/05/15 09:31:21;;;;;;;26.27;4.95;;;17.20;81.30;;;;;;5092614;28;20230;-39
2021/05/15 09:33:51;;;;;;;1.52;1.00;;;17.20;82.30;;;;;;5092436;28;20675;-42
2021/05/15 09:36:22;;;;;;;4.28;0.90;;;17.20;82.00;;;;;;5092524;28;20241;-39
2021/05/15 09:39:00;;;;;;;1.00;0.65;;;17.40;81.40;;;;;;5092845;28;20560;-40
2021/05/15 09:41:32;;;;;;;6.40;1.10;;;17.60;80.50;;;;;;5092237;28;20294;-41
2021/05/15 09:43:59;;;;;;;10.35;1.65;;;17.80;80.00;;;;;;5092413;28;20288;-43
2021/05/15 09:46:28;;;;;;;1.05;0.70;;;18.10;78.90;;;;;;5092054;28;20681;-43
2021/05/15 09:48:56;;;;;;;0.70;0.50;;;18.10;77.70;;;;;;5092239;28;20293;-40
2021/05/15 09:51:25;;;;;;;6.22;0.95;;;18.00;77.20;;;;;;5092275;28;20259;-40
2021/05/15 09:53:52;;;;;;;1.65;0.70;;;18.00;76.70;;;;;;5092065;28;20729;-40
2021/05/15 09:56:27;;;;;;;1.42;0.85;;;18.00;77.20;;;;;;5092232;28;20269;-40
2021/05/15 09:58:56;;;;;;;0.95;0.70;;;18.20;76.00;;;;;;5092113;28;20301;-40
2021/05/15 10:01:23;;;;;;;7.75;1.50;;;18.50;75.50;;;;;;5092231;28;20619;-41
2021/05/15 10:03:59;;;;;;;2.47;0.88;;;18.80;74.30;;;;;;5092167;28;20210;-41
2021/05/15 10:06:27;;;;;;;0.95;0.70;;;18.90;73.50;;;;;;5091991;28;20688;-41
2021/05/15 10:08:55;;;;;;;4.57;0.93;;;18.80;72.80;;;;;;5092084;28;20213;-40
2021/05/15 10:11:24;;;;;;;7.68;1.48;;;18.60;72.50;;;;;;5092109;28;20242;-43
2021/05/15 10:13:52;;;;;;;1.20;0.65;;;18.30;72.50;;;;;;5092090;28;20214;-41
2021/05/15 10:16:20;;;;;;;0.55;0.55;;;18.10;72.90;;;;;;5091815;28;20611;-41
2021/05/15 10:18:48;;;;;;;1.75;0.80;;;18.00;72.90;;;;;;5091903;28;20238;-42
2021/05/15 10:21:16;;;;;;;1.10;0.73;;;18.00;73.00;;;;;;5091827;28;20234;-41
2021/05/15 10:23:45;;;;;;;4.82;1.42;;;18.20;72.70;;;;;;5091519;28;20241;-41
2021/05/15 10:26:20;;;;;;;0.55;0.52;;;18.20;72.20;;;;;;5091641;28;20626;-44
2021/05/15 10:28:58;;;;;;;0.77;0.65;;;18.00;71.40;;;;;;5091785;28;20237;-41
2021/05/15 10:31:36;;;;;;;1.63;0.50;;;18.00;71.70;;;;;;5091830;28;20250;-42
2021/05/15 10:34:04;;;;;;;0.63;0.63;;;17.90;71.70;;;;;;5091883;28;20302;-41
2021/05/15 10:36:42;;;;;;;0.88;0.60;;;17.70;72.00;;;;;;5091271;28;20321;-43
2021/05/15 10:39:11;;;;;;;0.70;0.60;;;17.70;72.10;;;;;;5091982;28;20310;-42
2021/05/15 10:41:45;;;;;;;2.85;2.05;;;17.80;71.90;;;;;;5094603;28;20669;-40
2021/05/15 10:44:14;;;;;;;15.13;3.55;;;18.00;71.50;;;;;;5095466;28;20553;-40
2021/05/15 10:46:46;;;;;;;1.20;1.00;;;17.90;71.80;;;;;;5095398;28;20206;-41
2021/05/15 10:49:19;;;;;;;1.77;1.38;;;18.00;71.70;;;;;;5095348;28;20242;-40
2021/05/15 10:51:50;;;;;;;0.63;0.50;;;17.80;71.40;;;;;;5095556;28;20238;-39
2021/05/15 10:54:31;;;;;;;1.00;0.90;;;17.70;72.10;;;;;;5095068;28;20656;-40
2021/05/15 10:57:03;;;;;;;3.42;1.20;;;17.70;72.00;;;;;;5095278;28;20225;-40
2021/05/15 10:59:32;;;;;;;1.25;0.60;;;18.00;72.00;;;;;;5095297;28;20206;-39
2021/05/15 11:02:00;;;;;;;2.58;1.25;;;18.20;71.70;;;;;;5095052;28;20667;-40
2021/05/15 11:04:31;;;;;;;0.80;0.80;;;18.40;71.10;;;;;;5094953;28;20736;-41
2021/05/15 11:07:07;;;;;;;0.93;0.75;;;18.50;70.50;;;;;;5094813;28;20237;-38
2021/05/15 11:09:58;;;;;;;0.65;0.43;;;18.70;69.80;;;;;;5095266;28;20210;-40
2021/05/15 11:12:29;;;;;;;0.90;0.68;;;18.80;69.20;;;;;;5095116;28;20206;-41
2021/05/15 11:15:01;;;;;;;1.17;0.70;;;19.00;68.50;;;;;;5095005;28;20230;-40
2021/05/15 11:17:29;;;;;;;1.20;1.10;;;19.20;67.80;;;;;;5094835;28;20207;-41
2021/05/15 11:19:59;;;;;;;1.85;1.08;;;19.20;67.20;;;;;;5095048;28;20617;-40
2021/05/15 11:22:38;;;;;;;1.15;0.60;;;19.20;67.10;;;;;;5095014;28;20210;-41
2021/05/15 11:25:21;;;;;;;1.13;0.90;;;19.10;66.20;;;;;;5094640;28;20650;-40
2021/05/15 11:27:51;;;;;;;0.73;0.50;;;18.90;66.30;;;;;;5095324;28;20210;-41
2021/05/15 11:30:21;;;;;;;0.60;0.52;;;18.90;66.30;;;;;;5094866;28;20246;-38
2021/05/15 11:33:00;;;;;;;1.35;1.10;;;19.00;66.10;;;;;;5094377;28;20605;-41
2021/05/15 11:35:29;;;;;;;1.73;0.70;;;19.00;65.50;;;;;;5094621;28;20263;-40
2021/05/15 11:38:07;;;;;;;0.77;0.73;;;18.90;65.40;;;;;;5094327;28;20256;-39
2021/05/15 11:40:38;;;;;;;0.55;0.55;;;18.80;65.60;;;;;;5094381;28;20216;-40
2021/05/15 11:43:07;;;;;;;2.05;1.65;;;18.80;66.10;;;;;;5094225;28;20633;-41
2021/05/15 11:45:35;;;;;;;1.55;1.45;;;19.00;65.60;;;;;;5094512;28;20234;-41
2021/05/15 11:48:19;;;;;;;1.20;1.00;;;19.30;64.50;;;;;;5094564;28;20211;-40
2021/05/15 11:50:57;;;;;;;8.77;6.40;;;19.40;64.40;;;;;;5093281;28;20342;-41
2021/05/15 11:53:25;;;;;;;3.80;3.50;;;19.40;63.70;;;;;;5094375;28;20245;-41
2021/05/15 11:55:54;;;;;;;1.83;1.00;;;19.40;64.00;;;;;;5094336;28;20223;-41
2021/05/15 11:58:22;;;;;;;1.83;1.42;;;19.10;64.40;;;;;;5094158;28;20257;-41
2021/05/15 12:00:49;;;;;;;0.95;0.95;;;18.90;65.00;;;;;;5094134;28;20542;-40
2021/05/15 12:03:21;;;;;;;2.85;0.60;;;18.50;65.50;;;;;;5094294;28;20235;-40
2021/05/15 12:05:51;;;;;;;0.40;0.40;;;18.30;65.90;;;;;;5093949;28;20721;-41
2021/05/15 12:08:20;;;;;;;0.77;0.70;;;18.20;66.20;;;;;;5094209;28;20238;-41
2021/05/15 12:10:48;;;;;;;0.60;0.50;;;18.10;66.40;;;;;;5094046;28;20256;-40
2021/05/15 12:13:17;;;;;;;1.80;1.65;;;18.00;66.40;;;;;;5093857;28;20211;-40
2021/05/15 12:15:48;;;;;;;2.75;1.02;;;18.00;66.60;;;;;;5093836;28;20284;-40
2021/05/15 12:18:16;;;;;;;1.25;0.93;;;18.00;66.80;;;;;;5094128;28;20210;-39
2021/05/15 12:20:47;;;;;;;1.08;0.88;;;18.20;66.20;;;;;;5093845;28;20669;-42
2021/05/15 12:23:16;;;;;;;1.17;0.70;;;18.60;64.70;;;;;;5093785;28;20260;-40
2021/05/15 12:25:55;;;;;;;0.85;0.50;;;19.00;63.40;;;;;;5093448;28;20277;-42
2021/05/15 12:28:26;;;;;;;1.52;0.50;;;19.20;62.50;;;;;;5093976;28;20285;-40
2021/05/15 12:30:54;;;;;;;0.70;0.70;;;19.40;61.60;;;;;;5093607;28;20252;-40
2021/05/15 12:33:24;;;;;;;0.52;0.52;;;19.70;61.10;;;;;;5093067;28;20256;-40
2021/05/15 12:36:00;;;;;;;1.38;0.50;;;19.90;60.20;;;;;;5093299;28;20309;-41
2021/05/15 12:38:28;;;;;;;2.35;1.67;;;20.10;59.30;;;;;;5093303;28;20210;-41
2021/05/15 12:41:09;;;;;;;0.63;0.50;;;20.10;59.30;;;;;;5093537;28;20289;-40
2021/05/15 12:43:39;;;;;;;0.65;0.40;;;20.10;58.40;;;;;;5093342;28;20665;-40
2021/05/15 12:46:08;;;;;;;0.45;0.45;;;19.90;58.90;;;;;;5093283;28;20206;-41
2021/05/15 12:48:38;;;;;;;0.50;0.50;;;19.70;59.10;;;;;;5093067;28;20248;-40
2021/05/15 12:51:07;;;;;;;1.20;0.88;;;19.70;59.20;;;;;;5093005;28;20207;-43